Time;durP1;ratioP1;P1;durP2;ratioP2;P2;SDS_P1;SDS_P2;PMS_P1;PMS_P2;Temp;Humidity;BMP_temperature;BMP_pressure;BME280_temperature;BME280_humidity;BME280_pressure;Samples;Min_cycle;Max_cycle;Signal;HPM_P1;HPM_P2
2023/05/18 00:02:17;;;;;;;8.30;1.80;;;7.90;99.90;;;;;;4996863;28;20048;-70
2023/05/18 00:04:43;;;;;;;11.75;1.83;;;7.90;99.90;;;;;;4998889;28;20463;-71
2023/05/18 00:07:09;;;;;;;10.77;1.73;;;7.90;99.90;;;;;;5015849;28;20041;-71
2023/05/18 00:09:36;;;;;;;7.90;1.77;;;7.90;99.90;;;;;;4994223;28;20102;-71
2023/05/18 00:12:04;;;;;;;11.45;1.70;;;7.80;99.90;;;;;;4996067;28;20049;-71
2023/05/18 00:14:30;;;;;;;12.00;1.88;;;7.80;99.90;;;;;;4987204;28;20151;-71
2023/05/18 00:16:56;;;;;;;8.23;1.98;;;7.90;99.90;;;;;;5002961;28;20045;-71
2023/05/18 00:19:23;;;;;;;6.55;1.50;;;7.80;99.90;;;;;;4996664;28;20038;-70
2023/05/18 00:21:51;;;;;;;9.35;1.98;;;7.80;99.90;;;;;;5000624;28;20973;-72
2023/05/18 00:24:18;;;;;;;9.23;1.80;;;7.80;99.90;;;;;;5004299;28;20050;-71
2023/05/18 00:26:45;;;;;;;7.20;1.48;;;7.80;99.90;;;;;;5000657;28;20074;-71
2023/05/18 00:29:11;;;;;;;7.38;1.92;;;7.80;99.90;;;;;;5004401;28;20468;-71
2023/05/18 00:31:38;;;;;;;11.18;1.98;;;7.70;99.90;;;;;;5000343;28;20038;-71
2023/05/18 00:34:10;;;;;;;7.57;1.95;;;7.80;99.90;;;;;;5001174;28;20128;-70
2023/05/18 00:36:38;;;;;;;9.20;1.90;;;7.80;99.90;;;;;;4999416;28;20038;-71
2023/05/18 00:39:05;;;;;;;7.18;1.83;;;7.70;99.90;;;;;;5000414;28;20043;-69
2023/05/18 00:41:32;;;;;;;11.65;2.97;;;7.80;99.90;;;;;;5000665;28;20533;-72
2023/05/18 00:43:58;;;;;;;8.93;2.05;;;7.70;99.90;;;;;;5001338;28;20044;-71
2023/05/18 00:46:25;;;;;;;5.38;1.40;;;7.70;99.90;;;;;;4998494;28;20069;-71
2023/05/18 00:48:52;;;;;;;8.18;1.80;;;7.60;99.90;;;;;;4994984;28;20054;-71
2023/05/18 00:51:22;;;;;;;6.68;1.50;;;7.70;99.90;;;;;;4997431;28;20046;-71
2023/05/18 00:53:52;;;;;;;9.10;1.83;;;7.60;99.90;;;;;;5001591;28;20415;-71
2023/05/18 00:56:20;;;;;;;8.27;1.58;;;7.60;99.90;;;;;;5001226;28;20038;-72
2023/05/18 00:58:46;;;;;;;14.15;2.28;;;7.60;99.90;;;;;;4995384;28;20096;-71
2023/05/18 01:01:12;;;;;;;8.00;1.52;;;7.70;99.90;;;;;;4996911;28;21490;-71
2023/05/18 01:03:38;;;;;;;8.82;1.67;;;7.70;99.90;;;;;;5001069;28;20179;-71
2023/05/18 01:06:08;;;;;;;5.18;1.80;;;7.70;99.90;;;;;;4998075;28;20442;-71
2023/05/18 01:08:35;;;;;;;9.77;1.50;;;7.70;99.90;;;;;;4985377;28;20125;-71
2023/05/18 01:11:19;;;;;;;9.73;1.95;;;7.70;99.90;;;;;;4998747;28;20050;-71
2023/05/18 01:13:48;;;;;;;10.18;1.75;;;7.60;99.90;;;;;;4998842;28;20049;-71
2023/05/18 01:16:22;;;;;;;6.40;1.70;;;7.70;99.90;;;;;;5000389;28;20045;-71
2023/05/18 01:19:01;;;;;;;8.60;1.77;;;7.60;99.90;;;;;;5017546;28;20042;-71
2023/05/18 01:21:42;;;;;;;8.90;2.28;;;7.70;99.90;;;;;;4999442;28;20088;-71
2023/05/18 01:24:41;;;;;;;7.18;1.55;;;7.60;99.90;;;;;;5000052;28;20498;-71
2023/05/18 01:27:08;;;;;;;10.98;2.00;;;7.70;99.90;;;;;;4997413;28;20046;-70
2023/05/18 01:29:34;;;;;;;11.68;1.73;;;7.70;99.90;;;;;;4998484;28;20049;-71
2023/05/18 01:32:00;;;;;;;11.75;2.35;;;7.60;99.90;;;;;;4998677;28;20125;-71
2023/05/18 01:34:26;;;;;;;7.30;1.85;;;7.70;99.90;;;;;;5001301;28;20129;-71
2023/05/18 01:36:52;;;;;;;9.90;1.77;;;7.60;99.90;;;;;;4999198;28;20045;-71
2023/05/18 01:39:18;;;;;;;8.40;1.70;;;7.60;99.90;;;;;;4996899;28;20046;-71
2023/05/18 01:42:02;;;;;;;9.55;1.95;;;7.60;99.90;;;;;;4999470;28;20057;-71
2023/05/18 01:45:08;;;;;;;9.15;1.90;;;7.60;99.90;;;;;;5001616;28;20052;-71
2023/05/18 01:47:36;;;;;;;9.80;1.63;;;7.60;99.90;;;;;;4971003;28;20084;-71
2023/05/18 01:50:12;;;;;;;9.65;1.80;;;7.60;99.90;;;;;;4999845;28;20041;-71
2023/05/18 01:52:41;;;;;;;7.97;1.92;;;7.60;99.90;;;;;;4997934;28;20053;-71
2023/05/18 01:55:08;;;;;;;9.77;1.80;;;7.60;99.90;;;;;;5001151;28;20402;-71
2023/05/18 01:57:36;;;;;;;10.68;1.98;;;7.60;99.90;;;;;;4983667;28;20054;-71
2023/05/18 02:00:06;;;;;;;5.45;1.50;;;7.60;99.90;;;;;;5001747;28;20038;-71
2023/05/18 02:02:32;;;;;;;11.23;2.10;;;7.60;99.90;;;;;;4986445;28;20100;-71
2023/05/18 02:04:58;;;;;;;8.07;2.58;;;7.60;99.90;;;;;;5001940;28;20503;-71
2023/05/18 02:07:23;;;;;;;6.60;1.65;;;7.60;99.90;;;;;;5007376;28;20522;-71
2023/05/18 02:09:49;;;;;;;9.07;2.33;;;7.60;99.90;;;;;;5001867;28;20049;-71
2023/05/18 02:12:15;;;;;;;6.85;1.67;;;7.60;99.90;;;;;;5002334;28;20053;-72
2023/05/18 02:14:41;;;;;;;7.05;1.77;;;7.70;99.90;;;;;;5002332;28;20034;-71
2023/05/18 02:17:07;;;;;;;5.85;1.45;;;7.60;99.90;;;;;;5000501;28;20327;-71
2023/05/18 02:19:36;;;;;;;10.95;1.58;;;7.60;99.90;;;;;;4998833;28;20046;-71
2023/05/18 02:22:05;;;;;;;7.28;1.38;;;7.60;99.90;;;;;;4988410;28;20046;-71
2023/05/18 02:24:32;;;;;;;9.05;2.08;;;7.60;99.90;;;;;;5003642;28;20530;-71
2023/05/18 02:26:57;;;;;;;5.30;1.73;;;7.70;99.90;;;;;;5005740;28;20136;-70
2023/05/18 02:29:23;;;;;;;10.98;1.90;;;7.60;99.90;;;;;;5005024;28;20561;-71
2023/05/18 02:31:49;;;;;;;7.70;1.73;;;7.60;99.90;;;;;;5007650;28;20049;-70
2023/05/18 02:34:15;;;;;;;9.30;2.00;;;7.60;99.90;;;;;;4987472;28;20088;-70
2023/05/18 02:36:42;;;;;;;12.18;1.60;;;7.60;99.90;;;;;;4984201;28;20514;-70
2023/05/18 02:39:09;;;;;;;8.10;1.52;;;7.60;99.90;;;;;;4999797;28;20042;-71
2023/05/18 02:41:35;;;;;;;12.55;1.70;;;7.60;99.90;;;;;;5014882;28;20045;-70
2023/05/18 02:44:02;;;;;;;6.80;1.40;;;7.60;99.90;;;;;;5003654;28;20044;-70
2023/05/18 02:46:28;;;;;;;6.18;2.15;;;7.60;99.90;;;;;;5001718;28;20481;-70
2023/05/18 02:48:54;;;;;;;9.50;1.80;;;8.00;99.90;;;;;;5002936;28;20085;-71
2023/05/18 02:51:23;;;;;;;8.30;1.75;;;7.60;99.90;;;;;;5003445;28;20049;-71
2023/05/18 02:53:50;;;;;;;6.97;1.80;;;7.60;99.90;;;;;;4999804;28;20632;-71
2023/05/18 02:56:16;;;;;;;8.77;1.73;;;7.50;99.90;;;;;;5006333;28;20065;-70
2023/05/18 02:58:43;;;;;;;6.70;1.70;;;7.60;99.90;;;;;;4995116;28;20518;-70
2023/05/18 03:01:11;;;;;;;6.85;1.50;;;7.60;99.90;;;;;;4983757;28;20578;-71
2023/05/18 03:03:37;;;;;;;8.88;2.05;;;7.60;99.90;;;;;;5002041;28;20103;-71
2023/05/18 03:06:04;;;;;;;11.55;1.95;;;7.60;99.90;;;;;;5000836;28;20073;-70
2023/05/18 03:08:30;;;;;;;7.03;1.80;;;7.60;99.90;;;;;;5004729;28;20140;-71
2023/05/18 03:10:59;;;;;;;9.20;2.58;;;7.60;99.90;;;;;;4999456;28;20124;-71
2023/05/18 03:13:25;;;;;;;8.23;1.67;;;7.60;99.90;;;;;;5002070;28;20042;-71
2023/05/18 03:15:51;;;;;;;7.35;1.92;;;7.60;99.90;;;;;;5002124;28;20593;-71
2023/05/18 03:18:20;;;;;;;8.48;1.90;;;7.60;99.90;;;;;;5002420;28;20046;-71
2023/05/18 03:20:45;;;;;;;5.50;1.50;;;7.60;99.90;;;;;;5004223;28;20053;-71
2023/05/18 03:23:11;;;;;;;9.07;1.80;;;7.60;99.90;;;;;;5001914;28;20120;-71
2023/05/18 03:25:37;;;;;;;6.25;1.60;;;7.60;99.90;;;;;;5004055;28;20057;-71
2023/05/18 03:28:06;;;;;;;9.07;1.50;;;7.60;99.90;;;;;;4998634;28;20045;-71
2023/05/18 03:30:32;;;;;;;8.60;2.72;;;7.60;99.90;;;;;;4995781;28;20410;-71
2023/05/18 03:33:00;;;;;;;11.18;2.10;;;7.60;99.90;;;;;;4984352;28;20148;-70
2023/05/18 03:35:26;;;;;;;9.60;1.98;;;7.60;99.90;;;;;;5004994;28;20050;-71
2023/05/18 03:37:52;;;;;;;10.30;2.15;;;7.60;99.90;;;;;;5002293;28;20057;-71
2023/05/18 03:40:19;;;;;;;11.88;2.75;;;7.70;99.90;;;;;;5004130;28;20037;-71
2023/05/18 03:42:44;;;;;;;8.60;2.30;;;7.60;99.90;;;;;;4985678;28;20151;-71
2023/05/18 03:45:11;;;;;;;10.27;2.75;;;7.60;99.90;;;;;;5000176;28;20672;-71
2023/05/18 03:47:38;;;;;;;7.25;2.13;;;7.60;99.90;;;;;;4980291;28;20058;-71
2023/05/18 03:50:05;;;;;;;12.05;2.50;;;7.60;99.90;;;;;;4996342;28;20049;-71
2023/05/18 03:52:32;;;;;;;11.10;2.85;;;7.60;99.90;;;;;;4993733;28;20132;-71
2023/05/18 03:55:00;;;;;;;8.52;2.25;;;7.60;99.90;;;;;;5002888;28;20091;-71
2023/05/18 03:57:27;;;;;;;9.38;2.35;;;7.60;99.90;;;;;;4999523;28;20057;-71
2023/05/18 03:59:53;;;;;;;8.55;2.50;;;7.60;99.90;;;;;;4981931;28;20038;-71
2023/05/18 04:02:18;;;;;;;6.47;2.40;;;7.60;99.90;;;;;;5001991;28;20034;-71
2023/05/18 04:04:46;;;;;;;6.63;1.95;;;7.60;99.90;;;;;;5005136;28;20086;-71
2023/05/18 04:07:20;;;;;;;8.30;2.30;;;7.60;99.90;;;;;;4999804;28;20049;-71
2023/05/18 04:09:50;;;;;;;9.25;2.33;;;7.70;99.90;;;;;;4997463;28;20085;-71
2023/05/18 04:12:19;;;;;;;9.55;2.78;;;7.60;99.90;;;;;;5004907;28;20155;-71
2023/05/18 04:14:48;;;;;;;12.30;2.33;;;7.60;99.90;;;;;;5002028;28;20546;-71
2023/05/18 04:17:16;;;;;;;13.35;2.78;;;7.70;99.90;;;;;;5002387;28;20040;-71
2023/05/18 04:19:41;;;;;;;9.25;2.00;;;7.70;99.90;;;;;;5000125;28;20042;-71
2023/05/18 04:22:07;;;;;;;9.35;2.50;;;7.70;99.90;;;;;;5004189;28;20060;-72
2023/05/18 04:24:33;;;;;;;8.23;2.83;;;7.70;99.90;;;;;;5002271;28;20446;-71
2023/05/18 04:27:00;;;;;;;8.48;2.60;;;7.70;99.90;;;;;;5017788;28;20041;-72
2023/05/18 04:29:27;;;;;;;8.77;2.53;;;7.70;99.90;;;;;;5002057;28;20048;-71
2023/05/18 04:31:58;;;;;;;6.35;2.25;;;7.70;99.90;;;;;;5000822;28;20068;-71
2023/05/18 04:34:25;;;;;;;10.50;2.45;;;7.70;99.90;;;;;;5001170;28;20054;-72
2023/05/18 04:36:54;;;;;;;11.63;2.28;;;7.70;99.90;;;;;;5001435;28;20403;-71
2023/05/18 04:39:21;;;;;;;8.93;2.42;;;7.70;99.90;;;;;;5000981;28;20038;-71
2023/05/18 04:41:47;;;;;;;8.13;2.30;;;7.70;99.90;;;;;;5004688;28;20764;-71
2023/05/18 04:44:14;;;;;;;8.65;2.40;;;7.80;99.90;;;;;;4999989;28;20641;-72
2023/05/18 04:46:40;;;;;;;9.95;2.45;;;7.80;99.90;;;;;;5001614;28;20526;-71
2023/05/18 04:49:05;;;;;;;8.73;2.30;;;7.80;99.90;;;;;;4998749;28;20058;-71
2023/05/18 04:51:33;;;;;;;11.05;2.72;;;7.80;99.90;;;;;;4995455;28;20042;-71
2023/05/18 04:54:00;;;;;;;11.50;2.60;;;7.80;99.90;;;;;;4998855;28;20133;-71
2023/05/18 04:56:25;;;;;;;8.45;2.45;;;7.80;99.90;;;;;;4986038;28;20085;-71
2023/05/18 04:58:51;;;;;;;8.15;2.10;;;7.80;99.90;;;;;;4995959;28;20165;-71
2023/05/18 05:01:17;;;;;;;6.72;1.92;;;7.90;99.90;;;;;;4993687;28;20127;-72
2023/05/18 05:03:43;;;;;;;14.18;3.15;;;7.90;99.90;;;;;;5000062;28;20570;-71
2023/05/18 05:06:10;;;;;;;8.88;2.72;;;7.90;99.90;;;;;;4976720;28;20041;-71
2023/05/18 05:08:37;;;;;;;13.40;2.58;;;7.90;99.90;;;;;;4993266;28;20603;-70
2023/05/18 05:11:03;;;;;;;9.90;2.63;;;7.90;99.90;;;;;;4993307;28;20043;-71
2023/05/18 05:13:28;;;;;;;15.23;2.63;;;7.90;99.90;;;;;;5000464;28;20107;-71
2023/05/18 05:15:54;;;;;;;9.52;2.75;;;7.90;99.90;;;;;;5001418;28;20061;-71
2023/05/18 05:18:20;;;;;;;10.90;2.65;;;7.90;99.90;;;;;;4989251;28;20096;-71
2023/05/18 05:20:47;;;;;;;8.23;2.38;;;8.00;99.90;;;;;;4988253;28;20058;-71
2023/05/18 05:23:13;;;;;;;10.43;2.35;;;8.00;99.90;;;;;;4996271;28;20093;-71
2023/05/18 05:25:38;;;;;;;15.45;2.55;;;8.00;99.90;;;;;;4996133;28;20483;-71
2023/05/18 05:28:04;;;;;;;10.05;2.40;;;8.00;99.90;;;;;;4991103;28;20046;-70
2023/05/18 05:30:30;;;;;;;10.27;2.30;;;8.10;99.90;;;;;;5003385;28;20034;-71
2023/05/18 05:32:56;;;;;;;11.32;2.08;;;8.10;99.90;;;;;;4992648;28;20776;-71
2023/05/18 05:35:22;;;;;;;10.00;2.35;;;8.10;99.90;;;;;;4985530;28;20134;-70
2023/05/18 05:37:48;;;;;;;10.63;2.30;;;8.10;99.90;;;;;;4999382;28;20047;-71
2023/05/18 05:40:13;;;;;;;8.68;2.15;;;8.10;99.90;;;;;;5003679;28;20038;-70
2023/05/18 05:42:40;;;;;;;9.32;1.63;;;8.20;99.90;;;;;;4999116;28;20038;-71
2023/05/18 05:45:07;;;;;;;10.98;2.13;;;8.40;99.90;;;;;;4992104;28;20046;-70
2023/05/18 05:47:33;;;;;;;7.60;1.90;;;8.30;99.90;;;;;;4992609;28;20045;-70
2023/05/18 05:49:58;;;;;;;8.93;2.20;;;8.20;99.90;;;;;;4995779;28;20042;-70
2023/05/18 05:52:27;;;;;;;8.57;1.75;;;8.30;99.90;;;;;;5006380;28;20045;-70
2023/05/18 05:54:53;;;;;;;10.60;2.22;;;8.30;99.90;;;;;;5007610;28;20048;-71
2023/05/18 05:57:19;;;;;;;8.10;2.00;;;8.30;99.90;;;;;;5007747;28;20055;-71
2023/05/18 05:59:45;;;;;;;10.05;2.10;;;8.40;99.90;;;;;;4999045;28;20049;-70
2023/05/18 06:02:11;;;;;;;10.32;2.10;;;8.40;99.90;;;;;;4988419;28;20088;-71
2023/05/18 06:04:37;;;;;;;11.38;2.47;;;8.40;99.90;;;;;;4999072;28;20092;-70
2023/05/18 06:07:03;;;;;;;12.60;2.10;;;8.70;99.90;;;;;;4995065;28;20469;-71
2023/05/18 06:09:29;;;;;;;11.77;2.25;;;8.50;99.90;;;;;;4995348;28;20049;-71
2023/05/18 06:11:54;;;;;;;8.05;1.98;;;8.50;99.90;;;;;;4997066;28;20054;-70
2023/05/18 06:14:20;;;;;;;8.60;2.50;;;8.50;99.90;;;;;;4995537;28;20049;-70
2023/05/18 06:16:46;;;;;;;13.10;2.33;;;8.60;99.90;;;;;;4991388;28;20511;-71
2023/05/18 06:19:12;;;;;;;12.43;2.13;;;8.60;99.90;;;;;;4994094;28;20057;-70
2023/05/18 06:21:38;;;;;;;15.43;2.25;;;8.60;99.90;;;;;;4983614;28;20088;-71
2023/05/18 06:24:04;;;;;;;9.20;2.20;;;8.60;99.90;;;;;;5001580;28;20690;-71
2023/05/18 06:26:30;;;;;;;14.18;2.47;;;8.60;99.90;;;;;;4999016;28;20038;-71
2023/05/18 06:28:56;;;;;;;9.52;2.33;;;9.00;99.90;;;;;;4985411;28;20561;-71
2023/05/18 06:31:22;;;;;;;11.45;2.00;;;8.70;99.90;;;;;;4999619;28;20046;-71
2023/05/18 06:33:48;;;;;;;11.98;2.20;;;8.80;99.90;;;;;;5007124;28;20418;-71
2023/05/18 06:36:15;;;;;;;10.70;2.03;;;8.70;99.90;;;;;;5004159;28;20045;-70
2023/05/18 06:38:40;;;;;;;10.35;2.58;;;8.70;99.90;;;;;;4994308;28;20049;-71
2023/05/18 06:41:06;;;;;;;6.63;2.17;;;8.70;99.90;;;;;;4981803;28;20687;-71
2023/05/18 06:43:32;;;;;;;6.93;1.90;;;8.70;99.90;;;;;;5006023;28;20057;-70
2023/05/18 06:45:58;;;;;;;8.70;1.70;;;9.10;99.90;;;;;;5005496;28;20046;-71
2023/05/18 06:48:25;;;;;;;11.82;2.22;;;8.80;99.90;;;;;;5000112;28;20045;-71
2023/05/18 06:50:51;;;;;;;13.70;2.50;;;8.80;99.90;;;;;;4997652;28;20137;-71
2023/05/18 06:53:17;;;;;;;11.05;1.98;;;8.80;99.90;;;;;;4997864;28;20049;-71
2023/05/18 06:55:43;;;;;;;10.10;2.05;;;8.80;99.90;;;;;;5002852;28;20034;-71
2023/05/18 06:58:08;;;;;;;8.30;2.40;;;8.80;99.90;;;;;;5002430;28;20133;-71
2023/05/18 07:00:34;;;;;;;17.52;2.10;;;8.90;99.90;;;;;;4993962;28;20041;-70
2023/05/18 07:03:00;;;;;;;11.20;1.90;;;8.90;99.90;;;;;;5001796;28;20077;-71
2023/05/18 07:05:26;;;;;;;9.90;1.75;;;8.90;99.90;;;;;;5005466;28;20538;-71
2023/05/18 07:07:55;;;;;;;7.53;1.90;;;9.00;99.90;;;;;;5014359;28;20124;-72
2023/05/18 07:10:21;;;;;;;11.65;2.67;;;9.00;99.90;;;;;;5008007;28;20494;-71
2023/05/18 07:12:48;;;;;;;32.17;4.85;;;9.00;99.90;;;;;;5007391;28;20057;-72
2023/05/18 07:15:14;;;;;;;12.10;2.60;;;9.00;99.90;;;;;;5009288;28;20048;-72
2023/05/18 07:17:39;;;;;;;10.75;2.40;;;9.10;99.90;;;;;;5007875;28;20041;-71
2023/05/18 07:20:06;;;;;;;14.63;2.38;;;9.20;99.90;;;;;;5007298;28;20410;-72
2023/05/18 07:22:33;;;;;;;7.22;2.10;;;9.20;99.90;;;;;;4995900;28;20129;-72
2023/05/18 07:24:59;;;;;;;7.55;1.65;;;9.30;99.90;;;;;;5001710;28;20073;-72
2023/05/18 07:27:26;;;;;;;12.18;2.00;;;9.40;99.90;;;;;;4988029;28;20133;-72
2023/05/18 07:29:52;;;;;;;11.48;1.83;;;9.50;99.90;;;;;;5005358;28;20053;-69
2023/05/18 07:32:18;;;;;;;8.40;1.65;;;9.60;99.90;;;;;;5011411;28;20042;-70
2023/05/18 07:34:45;;;;;;;6.93;1.58;;;9.70;99.90;;;;;;5004237;28;20033;-70
2023/05/18 07:37:11;;;;;;;6.40;1.75;;;9.80;99.90;;;;;;5008541;28;20045;-70
2023/05/18 07:39:37;;;;;;;11.20;2.50;;;9.90;99.90;;;;;;5005122;28;20038;-69
2023/05/18 07:42:03;;;;;;;10.30;2.20;;;10.00;99.90;;;;;;5007364;28;20045;-70
2023/05/18 07:44:29;;;;;;;8.82;1.90;;;10.10;99.90;;;;;;5008121;28;20499;-70
2023/05/18 07:46:55;;;;;;;11.55;2.40;;;10.20;99.90;;;;;;5002385;28;20077;-70
2023/05/18 07:49:24;;;;;;;8.73;2.47;;;10.30;99.90;;;;;;5002495;28;20034;-70
2023/05/18 07:51:51;;;;;;;7.53;2.25;;;10.30;99.90;;;;;;5007049;28;20049;-70
2023/05/18 07:54:18;;;;;;;7.80;1.98;;;10.20;99.90;;;;;;5002211;28;20100;-70
2023/05/18 07:56:44;;;;;;;7.88;2.30;;;10.50;99.90;;;;;;5004005;28;20077;-69
2023/05/18 07:59:10;;;;;;;10.32;2.38;;;10.70;99.90;;;;;;4992208;28;20133;-70
2023/05/18 08:01:37;;;;;;;6.80;2.08;;;10.50;99.90;;;;;;5011459;28;20544;-70
2023/05/18 08:04:03;;;;;;;11.00;2.47;;;10.60;99.90;;;;;;5008903;28;20075;-70
2023/05/18 08:06:29;;;;;;;9.85;1.83;;;10.60;99.90;;;;;;4990087;28;20128;-70
2023/05/18 08:08:55;;;;;;;11.02;1.92;;;10.60;99.90;;;;;;5008424;28;20052;-70
2023/05/18 08:11:22;;;;;;;8.80;2.30;;;10.60;99.90;;;;;;5006537;28;20519;-69
2023/05/18 08:13:48;;;;;;;11.38;2.25;;;10.60;99.90;;;;;;4993366;28;20076;-69
2023/05/18 08:16:14;;;;;;;5.72;1.52;;;10.60;99.90;;;;;;5007213;28;20050;-71
2023/05/18 08:18:40;;;;;;;9.77;2.20;;;10.70;99.90;;;;;;4993168;28;20038;-69
2023/05/18 08:21:08;;;;;;;11.55;2.42;;;10.80;99.90;;;;;;4997064;28;20462;-70
2023/05/18 08:23:34;;;;;;;10.30;2.55;;;10.90;99.90;;;;;;4997152;28;20121;-70
2023/05/18 08:26:02;;;;;;;12.48;2.88;;;11.00;99.90;;;;;;5000274;28;20238;-69
2023/05/18 08:28:28;;;;;;;11.95;2.20;;;11.10;99.90;;;;;;4983073;28;21306;-69
2023/05/18 08:30:54;;;;;;;14.43;2.80;;;11.10;99.90;;;;;;4991612;28;20053;-70
2023/05/18 08:33:20;;;;;;;8.88;2.00;;;11.20;99.90;;;;;;4990638;28;20115;-70
2023/05/18 08:35:46;;;;;;;9.02;1.95;;;11.30;99.90;;;;;;4997520;28;20434;-69
2023/05/18 08:38:12;;;;;;;6.63;2.08;;;11.40;99.90;;;;;;4998171;28;20041;-69
2023/05/18 08:41:00;;;;;;;11.52;2.53;;;11.50;99.90;;;;;;4989322;28;20503;-69
2023/05/18 08:43:32;;;;;;;12.23;2.22;;;11.50;99.90;;;;;;4976164;28;20415;-70
2023/05/18 08:46:12;;;;;;;9.40;2.10;;;11.60;99.90;;;;;;4998899;28;20053;-70
2023/05/18 08:48:39;;;;;;;5.90;2.03;;;11.60;99.90;;;;;;4998751;28;20049;-71
2023/05/18 08:51:07;;;;;;;9.75;2.22;;;11.70;99.90;;;;;;4998000;28;20514;-72
2023/05/18 08:53:35;;;;;;;7.18;1.88;;;11.70;99.90;;;;;;4983734;28;20056;-70
2023/05/18 08:56:02;;;;;;;6.55;1.83;;;11.60;99.90;;;;;;4994972;28;20056;-70
2023/05/18 08:58:49;;;;;;;11.07;1.88;;;11.80;99.90;;;;;;4993958;28;20045;-71
2023/05/18 09:01:16;;;;;;;7.32;1.75;;;11.60;99.90;;;;;;4981353;28;20056;-71
2023/05/18 09:03:45;;;;;;;10.57;2.00;;;11.50;99.90;;;;;;4999125;28;20067;-71
2023/05/18 09:06:11;;;;;;;10.73;2.00;;;11.50;99.90;;;;;;5010191;28;20072;-72
2023/05/18 09:08:38;;;;;;;8.75;2.28;;;11.50;99.90;;;;;;4993791;28;20038;-71
2023/05/18 09:11:04;;;;;;;9.52;2.28;;;11.60;99.90;;;;;;4980064;28;20045;-72
2023/05/18 09:13:30;;;;;;;10.85;2.28;;;11.50;99.90;;;;;;4992337;28;20539;-72
2023/05/18 09:15:56;;;;;;;9.00;1.90;;;11.50;99.90;;;;;;4999156;28;20038;-71
2023/05/18 09:18:21;;;;;;;8.15;2.22;;;11.60;99.90;;;;;;4996638;28;20045;-71
2023/05/18 09:20:47;;;;;;;10.60;1.98;;;11.50;99.90;;;;;;4996846;28;20045;-70
2023/05/18 09:23:14;;;;;;;10.98;2.10;;;11.50;99.90;;;;;;4998624;28;20518;-72
2023/05/18 09:25:44;;;;;;;7.85;2.33;;;11.50;99.90;;;;;;4994232;28;20115;-72
2023/05/18 09:28:24;;;;;;;7.70;2.05;;;11.50;99.90;;;;;;4994077;28;20054;-72
2023/05/18 09:30:52;;;;;;;7.60;2.30;;;11.60;99.90;;;;;;4996368;28;20475;-71
2023/05/18 09:33:22;;;;;;;7.97;1.90;;;11.70;99.90;;;;;;5002231;28;20050;-73
2023/05/18 09:35:50;;;;;;;6.93;1.90;;;11.70;99.90;;;;;;4998159;28;20144;-72
2023/05/18 09:38:20;;;;;;;12.65;2.15;;;11.70;99.90;;;;;;5005446;28;20061;-70
2023/05/18 09:40:48;;;;;;;8.18;1.80;;;11.70;99.90;;;;;;4985606;28;20139;-71
2023/05/18 09:43:15;;;;;;;9.05;2.17;;;11.80;99.90;;;;;;4985793;28;20048;-71
2023/05/18 09:45:43;;;;;;;8.65;2.20;;;11.80;99.90;;;;;;5004906;28;20407;-71
2023/05/18 09:48:09;;;;;;;10.68;2.42;;;11.90;99.90;;;;;;4986500;28;20085;-70
2023/05/18 09:50:36;;;;;;;6.90;1.85;;;11.90;99.90;;;;;;5001429;28;20057;-72
2023/05/18 09:53:12;;;;;;;8.80;1.98;;;12.00;99.90;;;;;;5003899;28;20104;-71
2023/05/18 09:55:46;;;;;;;9.68;2.45;;;11.90;99.90;;;;;;4987713;28;20057;-72
2023/05/18 09:58:12;;;;;;;9.65;2.33;;;11.90;99.90;;;;;;5009608;28;20087;-71
2023/05/18 10:00:42;;;;;;;9.13;2.28;;;11.90;99.90;;;;;;5004076;28;20102;-71
2023/05/18 10:03:21;;;;;;;8.65;1.90;;;11.90;99.90;;;;;;4982277;28;20049;-71
2023/05/18 10:05:48;;;;;;;6.93;2.10;;;12.00;99.90;;;;;;4998691;28;20046;-70
2023/05/18 10:08:15;;;;;;;11.38;2.10;;;11.80;99.90;;;;;;4999742;28;20585;-72
2023/05/18 10:10:46;;;;;;;9.85;2.00;;;12.10;99.90;;;;;;5006835;28;20111;-71
2023/05/18 10:13:16;;;;;;;8.07;2.15;;;12.20;99.90;;;;;;5000012;28;20406;-71
2023/05/18 10:15:47;;;;;;;9.25;1.90;;;12.30;99.90;;;;;;5002327;28;20576;-71
2023/05/18 10:18:20;;;;;;;10.25;1.98;;;12.30;99.90;;;;;;5001925;28;20129;-72
2023/05/18 10:20:47;;;;;;;6.93;2.55;;;12.30;99.90;;;;;;5006458;28;20050;-71
2023/05/18 10:23:13;;;;;;;11.65;2.30;;;12.30;99.90;;;;;;4983889;28;20060;-71
2023/05/18 10:25:43;;;;;;;10.45;1.80;;;12.40;99.90;;;;;;5001828;28;20409;-72
2023/05/18 10:28:10;;;;;;;8.27;2.25;;;12.40;99.90;;;;;;4996094;28;20780;-71
2023/05/18 10:30:39;;;;;;;9.90;2.22;;;12.50;99.90;;;;;;4999059;28;20077;-71
2023/05/18 10:33:06;;;;;;;10.77;2.20;;;12.60;99.90;;;;;;4999593;28;20056;-71
2023/05/18 10:35:32;;;;;;;9.35;2.35;;;12.70;99.90;;;;;;4997159;28;20494;-70
2023/05/18 10:38:00;;;;;;;14.27;2.50;;;12.70;99.90;;;;;;4980059;28;20084;-71
2023/05/18 10:40:27;;;;;;;8.90;2.10;;;12.70;99.90;;;;;;4996957;28;20378;-70
2023/05/18 10:43:00;;;;;;;10.13;1.83;;;12.60;99.90;;;;;;4982386;28;20054;-70
2023/05/18 10:45:27;;;;;;;11.70;2.25;;;12.60;99.90;;;;;;4988634;28;20042;-70
2023/05/18 10:47:55;;;;;;;11.85;2.20;;;12.60;99.90;;;;;;4999814;28;20058;-72
2023/05/18 10:50:22;;;;;;;7.82;2.05;;;12.60;99.90;;;;;;4999821;28;20060;-70
2023/05/18 10:52:49;;;;;;;7.93;2.10;;;12.70;99.90;;;;;;4995470;28;21300;-71
2023/05/18 10:55:15;;;;;;;11.70;2.85;;;12.80;99.90;;;;;;4975620;28;20478;-71
2023/05/18 10:57:46;;;;;;;11.30;2.40;;;12.80;99.90;;;;;;4996115;28;21839;-72
2023/05/18 11:00:13;;;;;;;12.95;2.00;;;12.90;99.90;;;;;;5002114;28;20038;-71
2023/05/18 11:02:41;;;;;;;13.98;2.95;;;12.90;99.90;;;;;;5003208;28;20038;-71
2023/05/18 11:05:08;;;;;;;7.90;2.40;;;13.00;99.90;;;;;;4990616;28;20050;-71
2023/05/18 11:07:35;;;;;;;8.98;2.00;;;13.10;99.90;;;;;;5001888;28;20380;-71
2023/05/18 11:10:06;;;;;;;7.53;2.08;;;13.10;99.90;;;;;;5003957;28;20609;-71
2023/05/18 11:12:33;;;;;;;9.85;2.13;;;13.10;99.90;;;;;;5005684;28;20057;-71
2023/05/18 11:14:59;;;;;;;9.52;2.30;;;13.10;99.90;;;;;;4994501;28;20050;-71
2023/05/18 11:17:28;;;;;;;9.63;2.80;;;13.10;99.90;;;;;;4999890;28;20745;-71
2023/05/18 11:20:06;;;;;;;8.90;2.10;;;13.10;99.90;;;;;;5000365;28;20049;-71
2023/05/18 11:22:47;;;;;;;9.80;2.20;;;13.00;99.90;;;;;;5003998;28;20058;-71
2023/05/18 11:25:25;;;;;;;9.43;2.05;;;12.90;99.90;;;;;;4995962;28;20045;-70
2023/05/18 11:28:00;;;;;;;12.52;2.72;;;12.90;99.90;;;;;;5001456;28;20054;-71
2023/05/18 11:30:45;;;;;;;9.27;2.05;;;12.80;99.90;;;;;;4986129;28;20049;-71
2023/05/18 11:33:21;;;;;;;12.02;2.28;;;12.80;99.90;;;;;;5004138;28;20051;-72
2023/05/18 11:36:07;;;;;;;9.65;2.53;;;12.80;99.90;;;;;;4995913;28;20064;-71
2023/05/18 11:39:09;;;;;;;11.18;2.20;;;12.80;99.90;;;;;;5000544;28;20046;-71
2023/05/18 11:41:41;;;;;;;8.27;2.33;;;12.90;99.90;;;;;;4996480;28;20049;-71
2023/05/18 11:44:20;;;;;;;11.50;2.25;;;13.10;99.90;;;;;;4993198;28;20050;-72
2023/05/18 11:46:55;;;;;;;7.35;1.80;;;13.10;99.90;;;;;;5001560;28;20653;-72
2023/05/18 11:49:26;;;;;;;10.77;2.30;;;13.20;99.90;;;;;;4973865;28;20077;-72
2023/05/18 11:51:55;;;;;;;9.35;1.98;;;13.20;99.90;;;;;;4991365;28;20086;-71
2023/05/18 11:54:25;;;;;;;10.73;2.42;;;13.30;99.90;;;;;;4990232;28;20042;-70
2023/05/18 11:56:54;;;;;;;9.55;2.10;;;13.40;99.90;;;;;;4987301;28;20045;-73
2023/05/18 11:59:37;;;;;;;8.98;2.20;;;13.40;99.90;;;;;;4995052;28;20042;-72
2023/05/18 12:02:03;;;;;;;7.47;2.08;;;13.50;99.90;;;;;;4983978;28;20073;-72
2023/05/18 12:04:32;;;;;;;9.20;1.80;;;13.50;99.90;;;;;;4990592;28;20045;-72
2023/05/18 12:06:59;;;;;;;10.82;2.30;;;13.60;99.90;;;;;;4991466;28;20099;-71
2023/05/18 12:09:29;;;;;;;11.82;2.47;;;13.60;99.90;;;;;;4994203;28;20548;-73
2023/05/18 12:11:55;;;;;;;8.68;1.92;;;13.60;99.90;;;;;;4993711;28;20927;-72
2023/05/18 12:14:21;;;;;;;9.27;2.17;;;13.60;99.90;;;;;;4993710;28;20064;-73
2023/05/18 12:16:48;;;;;;;9.68;2.38;;;13.60;99.90;;;;;;4995366;28;20054;-72
2023/05/18 12:19:14;;;;;;;9.02;1.90;;;13.60;99.90;;;;;;4997527;28;20122;-71
2023/05/18 12:21:40;;;;;;;8.98;2.30;;;13.70;99.90;;;;;;4999678;28;20068;-70
2023/05/18 12:24:06;;;;;;;11.40;2.28;;;13.70;99.90;;;;;;4999121;28;20053;-72
2023/05/18 12:26:32;;;;;;;9.07;1.98;;;13.70;99.90;;;;;;4999406;28;20041;-71
2023/05/18 12:29:00;;;;;;;8.82;2.08;;;13.80;99.90;;;;;;4997350;28;20099;-71
2023/05/18 12:31:26;;;;;;;9.15;2.00;;;13.90;99.90;;;;;;4978199;28;20470;-73
2023/05/18 12:33:56;;;;;;;9.15;2.25;;;13.90;99.90;;;;;;5001490;28;20045;-71
2023/05/18 12:36:22;;;;;;;8.75;2.50;;;14.00;99.90;;;;;;5015242;28;20088;-71
2023/05/18 12:38:51;;;;;;;9.27;2.05;;;14.00;99.90;;;;;;4981111;28;20095;-71
2023/05/18 12:41:26;;;;;;;14.60;2.67;;;14.10;99.90;;;;;;5000547;28;20502;-71
2023/05/18 12:43:53;;;;;;;11.55;2.50;;;14.10;99.90;;;;;;5002697;28;20046;-71
2023/05/18 12:46:23;;;;;;;11.70;2.63;;;14.00;99.90;;;;;;4991835;28;20042;-70
2023/05/18 12:48:57;;;;;;;9.05;2.17;;;14.00;99.90;;;;;;4994539;28;20054;-71
2023/05/18 12:51:29;;;;;;;9.50;2.33;;;14.00;99.90;;;;;;4997347;28;20914;-71
2023/05/18 12:53:55;;;;;;;13.82;2.55;;;13.90;99.90;;;;;;4997008;28;20429;-73